createdAt,value
2023-02-26T00:00:15.248Z,45759.97
2023-02-26T00:02:43.313Z,45749.97
2023-02-26T00:05:10.383Z,45761.97
2023-02-26T00:07:37.721Z,45735.97
2023-02-26T00:10:06.522Z,45769.97
2023-02-26T00:12:33.359Z,45741.97
2023-02-26T00:15:00.737Z,45735.97
2023-02-26T00:17:49.163Z,45743.97
2023-02-26T00:20:17.146Z,45747.97
2023-02-26T00:22:44.422Z,45749.97
2023-02-26T00:25:12.094Z,45731.97
2023-02-26T00:27:38.764Z,45741.97
2023-02-26T00:30:09.600Z,45761.97
2023-02-26T00:32:36.769Z,45743.97
2023-02-26T00:35:04.881Z,45749.97
2023-02-26T00:37:57.488Z,45755.97
2023-02-26T00:40:41.205Z,45733.97
2023-02-26T00:43:13.504Z,45759.97
2023-02-26T00:45:47.264Z,45765.97
2023-02-26T00:48:29.582Z,45743.97
2023-02-26T00:51:05.839Z,45745.97
2023-02-26T00:53:40.908Z,45741.97
2023-02-26T00:56:07.729Z,45745.97
2023-02-26T00:58:34.113Z,45757.97
2023-02-26T01:01:01.752Z,45725.97
2023-02-26T01:03:28.857Z,45722.00
2023-02-26T01:05:55.349Z,45743.97
2023-02-26T01:08:52.938Z,45757.97
2023-02-26T01:11:19.597Z,45743.97
2023-02-26T01:13:46.312Z,45753.97
2023-02-26T01:16:21.126Z,45747.97
2023-02-26T01:18:55.576Z,45733.97
2023-02-26T01:21:36.184Z,45749.97
2023-02-26T01:24:06.448Z,45751.97
2023-02-26T01:26:33.182Z,45733.97
2023-02-26T01:29:01.190Z,45749.97
2023-02-26T01:31:49.481Z,45753.97
2023-02-26T01:34:25.440Z,45743.97
2023-02-26T01:37:04.682Z,45761.97
2023-02-26T01:39:47.067Z,45753.97
2023-02-26T01:42:19.753Z,45757.97
2023-02-26T01:45:01.340Z,45729.97
2023-02-26T01:48:00.320Z,45765.97
2023-02-26T01:50:30.270Z,45755.97
2023-02-26T01:53:19.697Z,45765.97
2023-02-26T01:55:51.396Z,45769.97
2023-02-26T01:58:19.924Z,45781.94
2023-02-26T02:00:46.487Z,45771.94
2023-02-26T02:03:13.407Z,45737.97
2023-02-26T02:05:49.995Z,45755.97
2023-02-26T02:08:17.116Z,45763.97
2023-02-26T02:10:46.153Z,45757.97
2023-02-26T02:13:35.365Z,45745.97
2023-02-26T02:16:07.722Z,45765.97
2023-02-26T02:19:04.099Z,45755.97
2023-02-26T02:21:56.704Z,45777.94
2023-02-26T02:24:56.771Z,45777.94
2023-02-26T02:27:35.486Z,45761.97
2023-02-26T02:30:24.589Z,45753.97
2023-02-26T02:32:57.362Z,45769.97
2023-02-26T02:35:47.240Z,45773.94
2023-02-26T02:38:23.905Z,45779.94
2023-02-26T02:40:55.644Z,45801.94
2023-02-26T02:43:29.677Z,45789.94
2023-02-26T02:46:25.157Z,45773.94
2023-02-26T02:49:01.125Z,45773.94
2023-02-26T02:51:46.526Z,45795.94
2023-02-26T02:54:26.666Z,45797.94
2023-02-26T02:57:04.414Z,45765.97
2023-02-26T02:59:42.273Z,45755.97
2023-02-26T03:02:22.360Z,45801.94
2023-02-26T03:04:49.090Z,45797.94
2023-02-26T03:07:15.612Z,45797.94
2023-02-26T03:09:43.024Z,45789.94
2023-02-26T03:12:11.450Z,45793.94
2023-02-26T03:14:38.425Z,45773.94
2023-02-26T03:17:33.417Z,45797.94
2023-02-26T03:20:16.720Z,45781.94
2023-02-26T03:23:08.056Z,45779.94
2023-02-26T03:25:56.188Z,45793.94
2023-02-26T03:28:29.696Z,45781.94
2023-02-26T03:31:05.990Z,45763.97
2023-02-26T03:33:54.427Z,45757.97
2023-02-26T03:36:31.703Z,45781.94
2023-02-26T03:39:39.113Z,45793.94
2023-02-26T03:42:28.255Z,45779.94
2023-02-26T03:45:07.300Z,45783.94
2023-02-26T03:47:36.032Z,45789.94
2023-02-26T03:50:08.484Z,45793.94
2023-02-26T03:52:48.589Z,45781.94
2023-02-26T03:55:49.311Z,45805.94
2023-02-26T03:58:30.580Z,45769.97
2023-02-26T04:01:27.655Z,45785.94
2023-02-26T04:04:00.739Z,45803.94
2023-02-26T04:06:27.848Z,45801.94
2023-02-26T04:08:57.658Z,45799.94
2023-02-26T04:11:25.718Z,45785.94
2023-02-26T04:13:52.287Z,45789.94
2023-02-26T04:16:19.072Z,45789.94
2023-02-26T04:18:46.168Z,45781.94
2023-02-26T04:21:18.750Z,45799.94
2023-02-26T04:23:46.512Z,45803.94
2023-02-26T04:26:13.421Z,45777.94
2023-02-26T04:28:41.459Z,45769.97
2023-02-26T04:31:10.438Z,45805.94
2023-02-26T04:33:38.658Z,45803.94
2023-02-26T04:36:05.667Z,45803.94
2023-02-26T04:38:32.371Z,45797.94
2023-02-26T04:40:59.398Z,45813.94
2023-02-26T04:43:26.004Z,45819.91
2023-02-26T04:46:07.715Z,45803.94
2023-02-26T04:48:36.043Z,45803.94
2023-02-26T04:51:02.562Z,45793.94
2023-02-26T04:53:29.210Z,45783.94
2023-02-26T04:55:56.060Z,45805.94
2023-02-26T04:58:22.613Z,45803.94
2023-02-26T05:00:54.763Z,45813.94
2023-02-26T05:03:21.936Z,45801.94
2023-02-26T05:05:49.491Z,45801.94
2023-02-26T05:08:15.955Z,45801.94
2023-02-26T05:10:42.698Z,45785.94
2023-02-26T05:13:09.230Z,45795.94
2023-02-26T05:15:35.735Z,45817.91
2023-02-26T05:18:02.237Z,45821.91
2023-02-26T05:20:29.297Z,45797.94
2023-02-26T05:22:55.724Z,45809.94
2023-02-26T05:25:22.531Z,45797.94
2023-02-26T05:27:48.999Z,45813.94
2023-02-26T05:30:16.616Z,45801.94
2023-02-26T05:32:43.642Z,45811.94
2023-02-26T05:35:10.865Z,45825.91
2023-02-26T05:37:38.048Z,45825.91
2023-02-26T05:40:06.908Z,45821.91
2023-02-26T05:42:33.435Z,45813.94
2023-02-26T05:44:59.907Z,45815.94
2023-02-26T05:47:26.799Z,45813.94
2023-02-26T05:49:53.536Z,45809.94
2023-02-26T05:52:19.983Z,45813.94
2023-02-26T05:54:46.362Z,45827.91
2023-02-26T05:57:12.868Z,45789.94
2023-02-26T05:59:39.385Z,45825.91
2023-02-26T06:02:05.826Z,45833.91
2023-02-26T06:04:32.273Z,45825.91
2023-02-26T06:06:58.699Z,45819.91
2023-02-26T06:09:25.087Z,45793.94
2023-02-26T06:11:51.484Z,45803.94
2023-02-26T06:14:17.906Z,45817.91
2023-02-26T06:16:44.319Z,45813.94
2023-02-26T06:19:10.730Z,45821.91
2023-02-26T06:21:37.611Z,45817.91
2023-02-26T06:24:04.243Z,45827.91
2023-02-26T06:26:30.668Z,45827.91
2023-02-26T06:28:58.566Z,45825.91
2023-02-26T06:31:24.979Z,45825.91
2023-02-26T06:33:51.413Z,45829.91
2023-02-26T06:36:17.816Z,45813.94
2023-02-26T06:38:45.400Z,45825.91
2023-02-26T06:41:11.964Z,45821.91
2023-02-26T06:43:38.386Z,45813.94
2023-02-26T06:46:04.948Z,45837.91
2023-02-26T06:48:31.692Z,45827.91
2023-02-26T06:50:58.196Z,45813.94
2023-02-26T06:53:24.653Z,45817.91
2023-02-26T06:55:52.708Z,45815.94
2023-02-26T06:58:20.570Z,45821.91
2023-02-26T07:00:47.123Z,45817.91
2023-02-26T07:03:15.531Z,45837.91
2023-02-26T07:05:42.641Z,45805.94
2023-02-26T07:08:09.059Z,45825.91
2023-02-26T07:10:36.744Z,45837.91
2023-02-26T07:13:03.592Z,45821.91
2023-02-26T07:15:30.809Z,45797.94
2023-02-26T07:17:59.893Z,45831.91
2023-02-26T07:20:27.237Z,45837.91
2023-02-26T07:22:53.644Z,45831.91
2023-02-26T07:25:20.013Z,45805.94
2023-02-26T07:27:47.191Z,45815.94
2023-02-26T07:30:14.396Z,45805.94
2023-02-26T07:32:40.779Z,45823.91
2023-02-26T07:35:07.932Z,45813.94
2023-02-26T07:37:34.461Z,45825.91
2023-02-26T07:40:00.909Z,45815.94
2023-02-26T07:42:27.760Z,45807.94
2023-02-26T07:44:54.131Z,45815.94
2023-02-26T07:47:20.561Z,45833.91
2023-02-26T07:49:47.006Z,45829.91
2023-02-26T07:52:13.450Z,45805.94
2023-02-26T07:54:39.831Z,45813.94
2023-02-26T07:57:06.774Z,45813.94
2023-02-26T07:59:33.260Z,45789.94
2023-02-26T08:01:59.724Z,45821.91
2023-02-26T08:04:26.278Z,45797.94
2023-02-26T08:06:54.563Z,45801.94
2023-02-26T08:09:21.743Z,45797.94
2023-02-26T08:11:48.245Z,45801.94
2023-02-26T08:14:14.982Z,45777.94
2023-02-26T08:16:41.388Z,45797.94
2023-02-26T08:19:08.067Z,45853.91
2023-02-26T08:21:34.528Z,45787.94
2023-02-26T08:24:01.184Z,45793.94
2023-02-26T08:26:28.243Z,45773.94
2023-02-26T08:28:55.460Z,45817.91
2023-02-26T08:31:22.329Z,45783.94
2023-02-26T08:33:48.781Z,45793.94
2023-02-26T08:36:15.258Z,45789.94
2023-02-26T08:38:41.650Z,45789.94
2023-02-26T08:41:08.770Z,45777.94
2023-02-26T08:43:35.173Z,45789.94
2023-02-26T08:46:01.743Z,45789.94
2023-02-26T08:48:28.191Z,45773.94
2023-02-26T08:50:54.639Z,45793.94
2023-02-26T08:53:21.558Z,45769.97
2023-02-26T08:55:52.321Z,45773.94
2023-02-26T08:58:19.649Z,45773.94
2023-02-26T09:00:46.547Z,45777.94
2023-02-26T09:03:13.380Z,45761.97
2023-02-26T09:05:40.785Z,45793.94
2023-02-26T09:08:08.119Z,45751.97
2023-02-26T09:10:35.074Z,45761.97
2023-02-26T09:13:01.548Z,45779.94
2023-02-26T09:15:28.053Z,45749.97
2023-02-26T09:17:57.785Z,45765.97
2023-02-26T09:20:24.405Z,45761.97
2023-02-26T09:22:50.795Z,45767.97
2023-02-26T09:25:17.234Z,45753.97
2023-02-26T09:27:43.724Z,45761.97
2023-02-26T09:30:10.915Z,45753.97
2023-02-26T09:32:38.009Z,45743.97
2023-02-26T09:35:05.491Z,45753.97
2023-02-26T09:37:32.449Z,45769.97
2023-02-26T09:39:58.848Z,45741.97
2023-02-26T09:42:31.779Z,45753.97
2023-02-26T09:45:00.000Z,45727.97
2023-02-26T09:47:28.877Z,45737.97
2023-02-26T09:50:05.977Z,45751.97
2023-02-26T09:52:38.262Z,45739.97
2023-02-26T09:55:12.562Z,45747.97
2023-02-26T09:57:46.286Z,45737.97
2023-02-26T10:00:56.191Z,45729.97
2023-02-26T10:04:01.987Z,45733.97
2023-02-26T10:06:32.257Z,45733.97
2023-02-26T10:09:05.729Z,45720.00
2023-02-26T10:11:46.355Z,45741.97
2023-02-26T10:14:26.749Z,45729.97
2023-02-26T10:16:59.271Z,45729.97
2023-02-26T10:19:33.958Z,45722.00
2023-02-26T10:22:11.951Z,45714.00
2023-02-26T10:24:40.327Z,45725.97
2023-02-26T10:27:15.978Z,45722.00
2023-02-26T10:29:56.176Z,45718.00
2023-02-26T10:32:59.774Z,45710.00
2023-02-26T10:35:29.030Z,45708.00
2023-02-26T10:38:04.454Z,45706.00
2023-02-26T10:40:39.753Z,45710.00
2023-02-26T10:43:08.773Z,45718.00
2023-02-26T10:45:46.475Z,45706.00
2023-02-26T10:48:20.627Z,45708.00
2023-02-26T10:50:52.889Z,45706.00
2023-02-26T10:53:21.679Z,45741.97
2023-02-26T10:55:59.515Z,45698.00
2023-02-26T10:58:26.836Z,45714.00
2023-02-26T11:00:55.916Z,45712.00
2023-02-26T11:03:37.834Z,45718.00
2023-02-26T11:06:06.414Z,45714.00
2023-02-26T11:08:42.293Z,45718.00
2023-02-26T11:11:09.503Z,45706.00
2023-02-26T11:13:38.664Z,45678.03
2023-02-26T11:16:15.141Z,45682.00
2023-02-26T11:18:49.167Z,45702.00
2023-02-26T11:21:26.849Z,45674.03
2023-02-26T11:24:05.869Z,45638.06
2023-02-26T11:26:35.732Z,45664.03
2023-02-26T11:29:02.698Z,45634.06
2023-02-26T11:31:30.080Z,45638.06
2023-02-26T11:34:04.831Z,45640.03
2023-02-26T11:36:33.849Z,45638.06
2023-02-26T11:39:08.173Z,45652.03
2023-02-26T11:41:39.620Z,45646.03
2023-02-26T11:44:16.035Z,45642.03
2023-02-26T11:46:49.223Z,45616.06
2023-02-26T11:49:18.946Z,45642.03
2023-02-26T11:51:47.387Z,45608.06
2023-02-26T11:54:23.094Z,45618.06
2023-02-26T11:56:49.580Z,45610.06
2023-02-26T11:59:20.087Z,45594.09
2023-02-26T12:01:47.220Z,45588.09
2023-02-26T12:04:18.107Z,45578.09
2023-02-26T12:06:49.091Z,45586.09
2023-02-26T12:09:15.501Z,45546.13
2023-02-26T12:11:48.654Z,45554.09
2023-02-26T12:14:27.400Z,45534.13
2023-02-26T12:17:12.247Z,45502.16
2023-02-26T12:19:52.857Z,45534.13
2023-02-26T12:22:56.752Z,45510.16
2023-02-26T12:25:32.425Z,45512.16
2023-02-26T12:28:19.056Z,45498.16
2023-02-26T12:31:15.760Z,45484.16
2023-02-26T12:34:06.546Z,45484.16
2023-02-26T12:36:51.748Z,45474.16
2023-02-26T12:39:27.341Z,45490.16
2023-02-26T12:42:13.206Z,45454.19
2023-02-26T12:45:09.955Z,45478.16
2023-02-26T12:47:50.574Z,45444.19
2023-02-26T12:50:40.088Z,45434.19
2023-02-26T12:53:06.643Z,45442.19
2023-02-26T12:56:08.399Z,45440.19
2023-02-26T12:58:46.738Z,45418.22
2023-02-26T13:01:33.509Z,45430.22
2023-02-26T13:04:13.156Z,45436.19
2023-02-26T13:06:54.683Z,45474.16
2023-02-26T13:09:31.732Z,45466.19
2023-02-26T13:12:07.672Z,45452.19
2023-02-26T13:14:43.019Z,45478.16
2023-02-26T13:17:21.541Z,45476.16
2023-02-26T13:19:53.956Z,45478.16
2023-02-26T13:22:25.806Z,45482.16
2023-02-26T13:25:16.165Z,45478.16
2023-02-26T13:27:44.383Z,45462.19
2023-02-26T13:30:36.409Z,45454.19
2023-02-26T13:33:03.107Z,45446.19
2023-02-26T13:35:40.087Z,45462.19
2023-02-26T13:38:37.916Z,45448.19
2023-02-26T13:41:19.783Z,45458.19
2023-02-26T13:44:07.226Z,45454.19
2023-02-26T13:46:40.114Z,45466.19
2023-02-26T13:49:22.061Z,45446.19
2023-02-26T13:51:52.205Z,45458.19
2023-02-26T13:54:21.469Z,45438.19
2023-02-26T13:57:09.732Z,45438.19
2023-02-26T13:59:37.792Z,45432.19
2023-02-26T14:02:37.803Z,45446.19
2023-02-26T14:05:27.873Z,45456.19
2023-02-26T14:08:10.558Z,45468.19
2023-02-26T14:10:46.692Z,45474.16
2023-02-26T14:13:20.900Z,45472.16
2023-02-26T14:16:00.688Z,45474.16
2023-02-26T14:18:39.499Z,45492.16
2023-02-26T14:21:25.141Z,45518.13
2023-02-26T14:23:57.701Z,45500.16
2023-02-26T14:26:27.687Z,45510.16
2023-02-26T14:28:58.367Z,45538.13
2023-02-26T14:31:29.147Z,45522.13
2023-02-26T14:34:02.294Z,45522.13
2023-02-26T14:36:54.401Z,45530.13
2023-02-26T14:39:37.006Z,45542.13
2023-02-26T14:42:12.994Z,45538.13
2023-02-26T14:44:44.371Z,45536.13
2023-02-26T14:47:12.505Z,45536.13
2023-02-26T14:49:45.143Z,45530.13
2023-02-26T14:52:28.432Z,45542.13
2023-02-26T14:55:15.873Z,45534.13
2023-02-26T14:57:59.284Z,45538.13
2023-02-26T15:00:58.759Z,45546.13
2023-02-26T15:03:46.294Z,45518.13
2023-02-26T15:06:49.209Z,45542.13
2023-02-26T15:09:43.595Z,45586.09
2023-02-26T15:12:16.085Z,45546.13
2023-02-26T15:14:42.401Z,45546.13
2023-02-26T15:17:33.316Z,45556.09
2023-02-26T15:20:15.023Z,45586.09
2023-02-26T15:23:00.525Z,45562.09
2023-02-26T15:25:42.677Z,45568.09
2023-02-26T15:28:24.968Z,45558.09
2023-02-26T15:30:52.378Z,45562.09
2023-02-26T15:33:20.884Z,45598.06
2023-02-26T15:35:52.066Z,45550.13
2023-02-26T15:38:18.987Z,45562.09
2023-02-26T15:40:46.692Z,45578.09
2023-02-26T15:43:23.054Z,45572.09
2023-02-26T15:45:53.501Z,45586.09
2023-02-26T15:48:38.579Z,45590.09
2023-02-26T15:51:09.092Z,45598.06
2023-02-26T15:53:48.811Z,45594.09
2023-02-26T15:56:26.097Z,45586.09
2023-02-26T15:59:01.877Z,45590.09
2023-02-26T16:01:29.812Z,45596.06
2023-02-26T16:03:58.886Z,45598.06
2023-02-26T16:06:32.641Z,45602.06
2023-02-26T16:09:00.298Z,45600.06
2023-02-26T16:11:33.250Z,45602.06
2023-02-26T16:14:00.393Z,45600.06
2023-02-26T16:16:42.541Z,45582.09
2023-02-26T16:19:15.208Z,45604.06
2023-02-26T16:21:43.493Z,45598.06
2023-02-26T16:24:17.774Z,45622.06
2023-02-26T16:26:55.981Z,45594.09
2023-02-26T16:29:25.892Z,45598.06
2023-02-26T16:31:57.847Z,45606.06
2023-02-26T16:34:43.349Z,45608.06
2023-02-26T16:37:45.006Z,45614.06
2023-02-26T16:40:11.309Z,45618.06
2023-02-26T16:42:50.522Z,45614.06
2023-02-26T16:45:32.050Z,45608.06
2023-02-26T16:47:59.347Z,45624.06
2023-02-26T16:50:28.400Z,45602.06
2023-02-26T16:53:14.989Z,45610.06
2023-02-26T16:55:47.158Z,45636.06
2023-02-26T16:58:15.900Z,45644.03
2023-02-26T17:00:47.091Z,45634.06
2023-02-26T17:03:19.247Z,45636.06
2023-02-26T17:06:05.025Z,45638.06
2023-02-26T17:08:42.305Z,45636.06
2023-02-26T17:11:18.166Z,45650.03
2023-02-26T17:13:44.583Z,45622.06
2023-02-26T17:16:13.073Z,45638.06
2023-02-26T17:18:40.095Z,45664.03
2023-02-26T17:21:07.951Z,45658.03
2023-02-26T17:23:37.171Z,45636.06
2023-02-26T17:26:04.391Z,45658.03
2023-02-26T17:28:36.538Z,45664.03
2023-02-26T17:31:04.195Z,45636.06
2023-02-26T17:33:30.645Z,45674.03
2023-02-26T17:36:00.746Z,45680.03
2023-02-26T17:38:27.850Z,45650.03
2023-02-26T17:40:55.580Z,45666.03
2023-02-26T17:43:23.153Z,45674.03
2023-02-26T17:45:50.004Z,45648.03
2023-02-26T17:48:17.776Z,45670.03
2023-02-26T17:50:47.079Z,45664.03
2023-02-26T17:53:15.538Z,45678.03
2023-02-26T17:55:42.630Z,45658.03
2023-02-26T17:58:18.385Z,45688.00
2023-02-26T18:00:49.456Z,45654.03
2023-02-26T18:03:16.232Z,45664.03
2023-02-26T18:05:43.139Z,45674.03
2023-02-26T18:08:30.145Z,45664.03
2023-02-26T18:10:58.674Z,45682.00
2023-02-26T18:13:25.710Z,45664.03
2023-02-26T18:15:53.256Z,45688.00
2023-02-26T18:18:21.289Z,45674.03
2023-02-26T18:20:48.341Z,45668.03
2023-02-26T18:23:16.915Z,45678.03
2023-02-26T18:25:45.600Z,45678.03
2023-02-26T18:28:21.451Z,45678.03
2023-02-26T18:30:48.505Z,45648.03
2023-02-26T18:33:16.988Z,45692.00
2023-02-26T18:35:48.608Z,45680.03
2023-02-26T18:38:17.799Z,45680.03
2023-02-26T18:40:45.624Z,45666.03
2023-02-26T18:43:12.788Z,45652.03
2023-02-26T18:45:40.528Z,45666.03
2023-02-26T18:48:07.040Z,45668.03
2023-02-26T18:50:33.817Z,45662.03
2023-02-26T18:53:00.576Z,45692.00
2023-02-26T18:55:27.260Z,45680.03
2023-02-26T18:57:53.788Z,45684.00
2023-02-26T19:00:21.240Z,45684.00
2023-02-26T19:02:47.852Z,45686.00
2023-02-26T19:05:14.713Z,45690.00
2023-02-26T19:07:42.698Z,45690.00
2023-02-26T19:10:13.322Z,45650.03
2023-02-26T19:12:39.760Z,45670.03
2023-02-26T19:15:07.039Z,45690.00
2023-02-26T19:17:33.411Z,45682.00
2023-02-26T19:19:59.817Z,45674.03
2023-02-26T19:22:26.248Z,45694.00
2023-02-26T19:24:54.581Z,45682.00
2023-02-26T19:27:20.988Z,45690.00
2023-02-26T19:29:47.487Z,45666.03
2023-02-26T19:32:14.051Z,45690.00
2023-02-26T19:34:40.555Z,45686.00
2023-02-26T19:37:07.134Z,45694.00
2023-02-26T19:39:34.397Z,45686.00
2023-02-26T19:42:00.811Z,45690.00
2023-02-26T19:44:31.766Z,45698.00
2023-02-26T19:46:59.223Z,45690.00
2023-02-26T19:49:25.929Z,45696.00
2023-02-26T19:51:52.457Z,45684.00
2023-02-26T19:54:19.726Z,45690.00
2023-02-26T19:56:46.124Z,45678.03
2023-02-26T19:59:13.119Z,45690.00
2023-02-26T20:01:41.307Z,45688.00
2023-02-26T20:04:08.207Z,45686.00
2023-02-26T20:06:34.584Z,45694.00
2023-02-26T20:09:01.278Z,45682.00
2023-02-26T20:11:28.517Z,45686.00
2023-02-26T20:13:55.472Z,45690.00
2023-02-26T20:16:21.984Z,45686.00
2023-02-26T20:18:49.063Z,45666.03
2023-02-26T20:21:15.437Z,45662.03
2023-02-26T20:23:41.976Z,45674.03
2023-02-26T20:26:14.811Z,45684.00
2023-02-26T20:28:42.340Z,45670.03
2023-02-26T20:31:09.624Z,45674.03
2023-02-26T20:33:39.204Z,45674.03
2023-02-26T20:36:07.894Z,45684.00
2023-02-26T20:38:35.518Z,45692.00
2023-02-26T20:41:02.292Z,45700.00
2023-02-26T20:43:28.740Z,45682.00
2023-02-26T20:45:56.436Z,45700.00
2023-02-26T20:48:23.876Z,45682.00
2023-02-26T20:50:53.293Z,45700.00
2023-02-26T20:53:21.503Z,45714.00
2023-02-26T20:55:48.865Z,45692.00
2023-02-26T20:58:15.523Z,45698.00
2023-02-26T21:00:42.481Z,45684.00
2023-02-26T21:03:09.345Z,45700.00
2023-02-26T21:05:35.840Z,45708.00
2023-02-26T21:08:04.122Z,45702.00
2023-02-26T21:10:30.955Z,45702.00
2023-02-26T21:12:57.325Z,45678.03
2023-02-26T21:15:23.826Z,45674.03
2023-02-26T21:17:50.243Z,45684.00
2023-02-26T21:20:17.995Z,45702.00
2023-02-26T21:22:47.804Z,45682.00
2023-02-26T21:25:14.315Z,45692.00
2023-02-26T21:27:41.072Z,45690.00
2023-02-26T21:30:09.322Z,45692.00
2023-02-26T21:32:35.924Z,45690.00
2023-02-26T21:35:02.473Z,45698.00
2023-02-26T21:37:29.208Z,45700.00
2023-02-26T21:39:55.730Z,45694.00
2023-02-26T21:42:23.272Z,45698.00
2023-02-26T21:44:49.767Z,45706.00
2023-02-26T21:47:16.906Z,45710.00
2023-02-26T21:49:43.565Z,45694.00
2023-02-26T21:52:11.802Z,45696.00
2023-02-26T21:54:38.211Z,45718.00
2023-02-26T21:57:04.884Z,45718.00
2023-02-26T21:59:31.326Z,45720.00
2023-02-26T22:01:57.967Z,45718.00
2023-02-26T22:04:24.657Z,45710.00
2023-02-26T22:06:51.166Z,45733.97
2023-02-26T22:09:21.746Z,45720.00
2023-02-26T22:11:48.670Z,45712.00
2023-02-26T22:14:15.280Z,45716.00
2023-02-26T22:16:41.691Z,45706.00
2023-02-26T22:19:08.194Z,45716.00
2023-02-26T22:21:34.627Z,45745.97
2023-02-26T22:24:02.954Z,45722.00
2023-02-26T22:26:30.310Z,45741.97
2023-02-26T22:28:59.288Z,45714.00
2023-02-26T22:31:27.786Z,45716.00
2023-02-26T22:33:54.683Z,45725.97
2023-02-26T22:36:21.077Z,45725.97
2023-02-26T22:38:47.657Z,45745.97
2023-02-26T22:41:14.131Z,45718.00
2023-02-26T22:43:40.628Z,45731.97
2023-02-26T22:46:07.978Z,45737.97
2023-02-26T22:48:34.460Z,45729.97
2023-02-26T22:51:00.999Z,45733.97
2023-02-26T22:53:27.537Z,45741.97
2023-02-26T22:55:54.829Z,45704.00
2023-02-26T22:58:21.321Z,45749.97
2023-02-26T23:00:47.764Z,45751.97
2023-02-26T23:03:15.068Z,45745.97
2023-02-26T23:05:41.452Z,45753.97
2023-02-26T23:08:08.212Z,45745.97
2023-02-26T23:10:34.659Z,45749.97
2023-02-26T23:13:02.908Z,45757.97
2023-02-26T23:15:29.454Z,45757.97
2023-02-26T23:17:56.104Z,45757.97
2023-02-26T23:20:22.585Z,45747.97
2023-02-26T23:22:49.089Z,45749.97
2023-02-26T23:25:15.675Z,45745.97
2023-02-26T23:27:42.355Z,45753.97
2023-02-26T23:30:10.888Z,45767.97
2023-02-26T23:32:37.721Z,45745.97
2023-02-26T23:35:04.944Z,45745.97
2023-02-26T23:37:31.376Z,45743.97
2023-02-26T23:39:58.392Z,45769.97
2023-02-26T23:42:24.918Z,45753.97
2023-02-26T23:44:51.299Z,45749.97
2023-02-26T23:47:17.759Z,45753.97
2023-02-26T23:49:44.172Z,45747.97
2023-02-26T23:52:10.606Z,45753.97
2023-02-26T23:54:39.612Z,45753.97
2023-02-26T23:57:06.790Z,45767.97
2023-02-26T23:59:33.443Z,45745.97
